KP69

Lowell Airport

Idaho, USA
METAR KP69 121852Z AUTO 00000KT 02/01 A3018 RMK AO1 SLP242 T00170006
Observed Flight Rules
Dec-12 @ 18:52 UTC (56 minutes ago)
Temperatures Readings
Current 2°C / 36°F
Dewpoint 1°C / 34°F
Humidity 93%
Altimeter 30.18" Hg
Pressure 1024.2 hPa
Elevation 480
METAR KP69 121852Z AUTO 00000KT 02/01 A3018 RMK AO1 SLP242 T00170006
Observed Flight Rules
Dec-12 @ 18:52 UTC
(56 minutes ago)
Temperature Dewpoint
2°C / 36°F 1°C / 34°F
Humidity Altimeter Pressure
93% 30.18" Hg 1024.2 hPa